createdAt,value
2023-05-19T05:09:38.972Z,9.50
2023-05-19T05:12:41.012Z,9.60
2023-05-19T05:15:42.918Z,9.70
2023-05-19T05:18:46.825Z,9.80
2023-05-19T05:21:48.787Z,9.80
2023-05-19T05:24:50.915Z,10.00
2023-05-19T05:27:52.606Z,10.00
2023-05-19T05:30:56.290Z,10.10
2023-05-19T05:33:58.140Z,10.10
2023-05-19T05:36:59.823Z,10.20
2023-05-19T05:40:01.726Z,10.20
2023-05-19T05:43:03.462Z,10.20
2023-05-19T05:46:05.355Z,10.30
2023-05-19T05:49:07.529Z,10.30
2023-05-19T05:52:10.303Z,10.40
2023-05-19T05:55:12.760Z,10.50
2023-05-19T05:58:15.623Z,10.60
2023-05-19T06:01:17.815Z,10.70
2023-05-19T06:04:20.996Z,10.70
2023-05-19T06:07:22.808Z,10.90
2023-05-19T06:10:24.899Z,11.00
2023-05-19T06:13:26.722Z,11.10
2023-05-19T06:16:28.501Z,11.10
2023-05-19T06:19:30.904Z,11.20
2023-05-19T06:22:32.700Z,11.30
2023-05-19T06:25:34.587Z,11.40
2023-05-19T06:28:36.710Z,11.50
2023-05-19T06:31:38.438Z,11.50
2023-05-19T06:34:40.549Z,11.70
2023-05-19T06:37:42.380Z,11.70
2023-05-19T06:40:44.227Z,11.80
2023-05-19T06:43:45.962Z,11.80
2023-05-19T06:46:47.707Z,11.80
2023-05-19T06:49:51.747Z,11.90
2023-05-19T06:52:53.596Z,12.00
2023-05-19T06:55:59.976Z,12.10
2023-05-19T06:59:03.117Z,12.10
2023-05-19T07:02:05.016Z,12.10
2023-05-19T07:05:08.133Z,12.10
2023-05-19T07:08:09.820Z,12.20
2023-05-19T07:11:12.467Z,12.30
2023-05-19T07:14:14.212Z,12.50
2023-05-19T07:17:15.989Z,12.50
2023-05-19T07:20:18.016Z,12.50
2023-05-19T07:23:19.806Z,12.50
2023-05-19T07:26:22.580Z,12.60
2023-05-19T07:29:24.488Z,12.70
2023-05-19T07:32:26.418Z,12.50
2023-05-19T07:35:28.335Z,12.40
2023-05-19T07:38:31.435Z,12.30
2023-05-19T07:41:34.254Z,12.50
2023-05-19T07:44:36.801Z,12.50
2023-05-19T07:47:38.576Z,12.50
2023-05-19T07:50:40.809Z,12.60
2023-05-19T07:53:43.866Z,12.80
2023-05-19T07:56:45.648Z,13.00
2023-05-19T07:59:47.509Z,13.10
2023-05-19T08:02:49.257Z,13.20
2023-05-19T08:05:51.023Z,13.30
2023-05-19T08:08:54.200Z,13.50
2023-05-19T08:11:55.905Z,13.60
2023-05-19T08:14:58.942Z,13.60
2023-05-19T08:18:03.372Z,13.60
2023-05-19T08:21:05.454Z,13.60
2023-05-19T08:24:07.332Z,13.60
2023-05-19T08:27:09.176Z,13.60
2023-05-19T08:30:11.816Z,13.60
2023-05-19T08:33:13.569Z,13.70
2023-05-19T08:36:15.335Z,13.70
2023-05-19T08:39:19.568Z,13.70
2023-05-19T08:42:21.309Z,13.70
2023-05-19T08:45:23.019Z,13.90
2023-05-19T08:48:24.707Z,13.90
2023-05-19T08:51:41.515Z,13.90
2023-05-19T08:54:50.934Z,13.80
2023-05-19T08:57:52.954Z,13.70
2023-05-19T09:00:55.511Z,13.60
2023-05-19T09:03:57.471Z,13.60
2023-05-19T09:07:02.670Z,13.60
2023-05-19T09:10:06.005Z,13.50
2023-05-19T09:13:07.725Z,13.50
2023-05-19T09:16:09.567Z,13.50
2023-05-19T09:19:15.375Z,13.40
2023-05-19T09:22:20.580Z,13.40
2023-05-19T09:25:22.987Z,13.50
2023-05-19T09:28:29.563Z,13.50
2023-05-19T09:31:33.061Z,13.60
2023-05-19T09:34:34.940Z,13.70
2023-05-19T09:37:42.200Z,13.90
2023-05-19T09:40:44.422Z,14.10
2023-05-19T09:43:48.808Z,14.10
2023-05-19T09:46:51.216Z,13.90
2023-05-19T09:49:53.550Z,13.90
2023-05-19T09:52:55.223Z,13.90
2023-05-19T09:55:57.909Z,14.20
2023-05-19T09:58:59.693Z,14.20
2023-05-19T10:02:01.643Z,14.20
2023-05-19T10:05:04.667Z,14.20
2023-05-19T10:08:07.283Z,14.30
2023-05-19T10:11:09.025Z,14.20
2023-05-19T10:14:10.747Z,14.20
2023-05-19T10:17:12.481Z,14.30
2023-05-19T10:20:15.855Z,14.50
2023-05-19T10:23:17.721Z,14.60
2023-05-19T10:26:19.408Z,14.70
2023-05-19T10:29:23.361Z,14.70
2023-05-19T10:32:26.808Z,14.80
2023-05-19T10:35:52.040Z,14.80
2023-05-19T10:38:58.829Z,14.70
2023-05-19T10:42:05.202Z,14.60
2023-05-19T10:45:21.312Z,14.60
2023-05-19T10:48:23.260Z,14.70
2023-05-19T10:51:32.103Z,14.70
2023-05-19T10:54:46.283Z,14.50
2023-05-19T10:57:54.467Z,14.60
2023-05-19T11:01:01.542Z,14.80
2023-05-19T11:04:09.077Z,15.00
2023-05-19T11:07:10.877Z,15.00
2023-05-19T11:10:12.989Z,15.10
2023-05-19T11:13:22.558Z,15.30
2023-05-19T11:16:29.336Z,15.20
2023-05-19T11:19:33.177Z,15.10
2023-05-19T11:22:36.294Z,15.30
2023-05-19T11:25:41.429Z,15.30
2023-05-19T11:28:43.303Z,15.50
2023-05-19T11:31:45.094Z,15.60
2023-05-19T11:34:48.249Z,15.60
2023-05-19T11:37:52.322Z,15.50
2023-05-19T11:40:54.486Z,15.60
2023-05-19T11:43:56.298Z,16.00
2023-05-19T11:46:59.279Z,16.40
2023-05-19T11:50:01.344Z,16.90
2023-05-19T11:53:03.512Z,17.40
2023-05-19T11:56:05.648Z,17.20
2023-05-19T11:59:07.978Z,17.40
2023-05-19T12:02:22.953Z,17.80
2023-05-19T12:05:25.913Z,18.10
2023-05-19T12:08:27.736Z,18.00
2023-05-19T12:11:29.475Z,18.00
2023-05-19T12:14:31.394Z,18.00
2023-05-19T12:17:33.370Z,18.00
2023-05-19T12:20:38.385Z,17.90
2023-05-19T12:23:41.528Z,17.90
2023-05-19T12:26:43.285Z,18.00
2023-05-19T12:29:54.918Z,18.10
2023-05-19T12:33:00.006Z,18.30
2023-05-19T12:36:01.802Z,18.10
2023-05-19T12:39:04.993Z,18.20
2023-05-19T12:42:10.585Z,18.20
2023-05-19T12:45:12.460Z,18.50
2023-05-19T12:48:17.073Z,19.00
2023-05-19T12:51:19.586Z,18.90
2023-05-19T12:54:22.073Z,18.90
2023-05-19T12:57:24.747Z,18.80
2023-05-19T13:00:32.605Z,18.80
2023-05-19T13:03:40.011Z,18.80
2023-05-19T13:06:43.697Z,18.80
2023-05-19T13:09:45.469Z,19.00
2023-05-19T13:12:47.328Z,19.10
2023-05-19T13:15:49.394Z,19.00
2023-05-19T13:18:51.587Z,19.00
2023-05-19T13:21:53.423Z,18.80
2023-05-19T13:24:58.720Z,18.90
2023-05-19T13:28:01.515Z,18.80
2023-05-19T13:31:03.637Z,18.70
2023-05-19T13:34:05.432Z,18.70
2023-05-19T13:37:10.074Z,19.00
2023-05-19T13:40:12.989Z,19.00
2023-05-19T13:43:14.802Z,19.10
2023-05-19T13:46:16.548Z,19.30
2023-05-19T13:49:18.416Z,19.30
2023-05-19T13:52:23.264Z,19.40
2023-05-19T13:55:27.162Z,19.50
2023-05-19T13:58:29.870Z,19.80
2023-05-19T14:01:31.615Z,19.70
2023-05-19T14:04:33.352Z,19.50
2023-05-19T14:07:35.607Z,19.50
2023-05-19T14:10:37.541Z,19.40
2023-05-19T14:16:41.715Z,19.70
2023-05-19T14:19:43.874Z,19.90
2023-05-19T14:22:45.627Z,19.90
2023-05-19T14:25:47.308Z,20.00
2023-05-19T14:28:49.101Z,20.00
2023-05-19T14:31:50.959Z,20.00
2023-05-19T14:34:53.062Z,20.10
2023-05-19T14:37:54.762Z,20.30
2023-05-19T14:40:56.816Z,20.50
2023-05-19T14:43:58.523Z,20.80
2023-05-19T14:47:02.369Z,21.00
2023-05-19T14:50:04.638Z,20.90
2023-05-19T14:53:06.347Z,20.80
2023-05-19T14:56:08.200Z,20.80
2023-05-19T14:59:10.297Z,20.90
2023-05-19T15:02:13.176Z,20.70
2023-05-19T15:05:15.032Z,20.70
2023-05-19T15:08:16.808Z,20.70
2023-05-19T15:11:18.543Z,20.70
2023-05-19T15:14:20.501Z,20.80
2023-05-19T15:17:22.250Z,21.00
2023-05-19T15:20:24.168Z,21.00
2023-05-19T15:23:25.885Z,21.00
2023-05-19T15:26:29.752Z,20.80
2023-05-19T15:29:32.174Z,21.10
2023-05-19T15:32:33.982Z,21.70
2023-05-19T15:35:35.695Z,22.10
2023-05-19T15:38:37.521Z,22.50
2023-05-19T15:41:39.269Z,22.70
2023-05-19T15:44:40.981Z,23.00
2023-05-19T15:47:42.692Z,23.20
2023-05-19T15:50:44.655Z,23.60
2023-05-19T15:53:46.413Z,24.40
2023-05-19T15:56:48.211Z,25.10
2023-05-19T15:59:49.968Z,25.30
2023-05-19T16:02:51.736Z,25.40
2023-05-19T16:05:54.209Z,25.70
2023-05-19T16:08:56.360Z,26.00
2023-05-19T16:11:58.109Z,26.00
2023-05-19T16:14:59.855Z,26.20
2023-05-19T16:18:01.590Z,26.40
2023-05-19T16:21:03.767Z,26.40
2023-05-19T16:24:05.765Z,25.90
2023-05-19T16:27:07.516Z,25.50
2023-05-19T16:30:09.842Z,25.50
2023-05-19T16:33:11.902Z,25.20
2023-05-19T16:36:13.642Z,24.90
2023-05-19T16:39:15.666Z,24.10
2023-05-19T16:42:17.456Z,23.00
2023-05-19T16:45:19.256Z,22.00
2023-05-19T16:48:20.996Z,21.30
2023-05-19T16:51:22.973Z,20.60
2023-05-19T16:54:25.354Z,20.00
2023-05-19T16:57:27.116Z,19.70
2023-05-19T17:00:29.817Z,19.50
2023-05-19T17:03:31.931Z,19.30
2023-05-19T17:06:33.736Z,19.10
2023-05-19T17:09:35.542Z,19.00
2023-05-19T17:12:37.298Z,18.90
2023-05-19T17:15:40.907Z,18.80
2023-05-19T17:18:44.193Z,18.90
2023-05-19T17:21:46.374Z,19.30
2023-05-19T17:24:48.182Z,20.00
2023-05-19T17:27:49.977Z,20.00
2023-05-19T17:30:51.881Z,19.50
2023-05-19T17:33:53.547Z,19.20
2023-05-19T17:36:55.372Z,18.90
2023-05-19T17:39:57.441Z,18.60
2023-05-19T17:42:59.239Z,18.50
2023-05-19T17:46:01.317Z,18.30
2023-05-19T17:49:03.338Z,18.20
2023-05-19T17:52:05.419Z,18.00
2023-05-19T17:55:08.005Z,17.80
2023-05-19T17:58:09.966Z,17.50
2023-05-19T18:01:11.766Z,17.50
2023-05-19T18:04:15.911Z,17.50
2023-05-19T18:07:18.033Z,17.50
2023-05-19T18:10:20.523Z,17.50
2023-05-19T18:13:23.584Z,17.50
2023-05-19T18:16:25.916Z,17.50
2023-05-19T18:19:27.909Z,17.40
2023-05-19T18:22:29.705Z,17.20
2023-05-19T18:25:31.404Z,17.00
2023-05-19T18:28:33.314Z,16.80
2023-05-19T18:31:35.163Z,16.60
2023-05-19T18:34:37.012Z,16.40
2023-05-19T18:37:38.856Z,16.40
2023-05-19T18:40:43.483Z,16.40
2023-05-19T18:43:45.284Z,16.40
2023-05-19T18:46:46.989Z,16.10
2023-05-19T18:49:49.296Z,15.90
2023-05-19T18:52:51.042Z,15.80
2023-05-19T18:55:52.727Z,15.60
2023-05-19T18:58:54.722Z,15.50
2023-05-19T19:01:56.483Z,15.40
2023-05-19T19:04:58.507Z,15.30
2023-05-19T19:08:00.377Z,15.30
2023-05-19T19:11:02.376Z,15.20
2023-05-19T19:14:04.214Z,15.00
2023-05-19T19:17:06.149Z,15.00
2023-05-19T19:20:08.908Z,14.90
2023-05-19T19:23:10.882Z,14.80
2023-05-19T19:26:12.633Z,14.60
2023-05-19T19:29:16.653Z,14.50
2023-05-19T19:32:18.399Z,14.40
2023-05-19T19:35:22.938Z,14.30
2023-05-19T19:38:24.719Z,14.20
2023-05-19T19:41:28.052Z,14.10
2023-05-19T19:44:29.741Z,14.00
2023-05-19T19:47:32.701Z,13.90
2023-05-19T19:50:34.750Z,13.90
2023-05-19T19:53:36.673Z,13.80
2023-05-19T19:56:38.525Z,13.70
2023-05-19T19:59:40.504Z,13.60
2023-05-19T20:02:55.799Z,13.50
2023-05-19T20:06:03.950Z,13.50
2023-05-19T20:09:06.153Z,13.50
2023-05-19T20:12:07.986Z,13.30
2023-05-19T20:15:10.112Z,13.30
2023-05-19T20:18:11.906Z,13.30
2023-05-19T20:21:13.816Z,13.20
2023-05-19T20:24:15.603Z,13.10
2023-05-19T20:27:17.372Z,13.10
2023-05-19T20:30:19.141Z,13.10
2023-05-19T20:33:21.188Z,13.10
2023-05-19T20:36:22.923Z,13.00
2023-05-19T20:39:24.736Z,13.00
2023-05-19T20:42:26.416Z,13.00
2023-05-19T20:45:28.236Z,12.90
2023-05-19T20:48:29.985Z,12.80
2023-05-19T20:51:32.696Z,12.80
2023-05-19T20:54:34.398Z,12.70
2023-05-19T20:57:36.088Z,12.70
2023-05-19T21:00:38.093Z,12.60
2023-05-19T21:03:40.127Z,12.50
2023-05-19T21:06:41.904Z,12.40
2023-05-19T21:09:46.450Z,12.30
2023-05-19T21:12:48.201Z,12.30
2023-05-19T21:15:50.011Z,12.20
2023-05-19T21:18:51.793Z,12.20
2023-05-19T21:21:53.664Z,12.10
2023-05-19T21:24:56.233Z,12.10
2023-05-19T21:28:01.094Z,12.00
2023-05-19T21:31:05.309Z,11.90
2023-05-19T21:34:09.781Z,11.90
2023-05-19T21:37:11.492Z,11.80
2023-05-19T21:40:13.575Z,11.70
2023-05-19T21:43:16.000Z,11.70
2023-05-19T21:46:17.732Z,11.60
2023-05-19T21:49:20.151Z,11.50
